Falls International Airport

Date: 2024-06-11 13:02:00Z

Type: SPECI

Weather: Light Rain

Winds: VRB° at 6 kts

Visibility: 2.5

Ceiling (AGL FT): Clouds SCATTERED at 1000, BROKEN at 2600, OVERCAST at 3600

RAW METAR: KINL 111302Z AUTO VRB06KT 2 1/2SM -RA BR SCT010 BKN026 OVC036 11/09 A2972 RMK AO2 P0000 T01060094

project-image